Time;durP1;ratioP1;P1;durP2;ratioP2;P2;SDS_P1;SDS_P2;PMS_P1;PMS_P2;Temp;Humidity;BMP_temperature;BMP_pressure;BME280_temperature;BME280_humidity;BME280_pressure;Samples;Min_cycle;Max_cycle;Signal;HPM_P1;HPM_P2
2023/07/22 00:01:28;;;;;;;3.03;2.72;;;;;;;16.22;61.29;99908.13;5015145;28;20457;-43
2023/07/22 00:03:55;;;;;;;4.90;4.10;;;;;;;16.19;61.76;99902.06;5016229;28;20072;-47
2023/07/22 00:06:22;;;;;;;2.50;2.20;;;;;;;16.19;61.16;99907.31;5014276;28;20060;-43
2023/07/22 00:08:49;;;;;;;5.55;2.58;;;;;;;16.18;61.26;99896.94;5012810;28;20136;-46
2023/07/22 00:11:16;;;;;;;3.22;2.65;;;;;;;16.16;61.56;99901.31;5018852;28;20056;-48
2023/07/22 00:13:43;;;;;;;4.28;2.95;;;;;;;16.15;62.01;99895.22;5021037;28;20041;-42
2023/07/22 00:16:10;;;;;;;3.17;2.50;;;;;;;16.13;61.29;99897.03;5023745;28;20049;-49
2023/07/22 00:18:37;;;;;;;3.63;2.47;;;;;;;16.11;61.89;99898.84;5014539;28;20049;-46
2023/07/22 00:21:06;;;;;;;3.35;2.35;;;;;;;16.08;60.94;99885.88;5014483;28;20120;-44
2023/07/22 00:23:35;;;;;;;3.38;2.28;;;;;;;16.06;61.71;99891.16;5010277;28;20053;-43
2023/07/22 00:26:03;;;;;;;2.42;2.22;;;;;;;16.05;61.67;99885.97;5010714;28;20049;-45
2023/07/22 00:28:32;;;;;;;4.30;2.25;;;;;;;16.01;61.00;99879.13;5018812;28;20116;-46
2023/07/22 00:31:03;;;;;;;4.72;2.00;;;;;;;15.99;61.52;99878.28;5023803;28;20053;-48
2023/07/22 00:33:32;;;;;;;2.35;2.15;;;;;;;15.97;61.64;99874.88;5020835;28;20167;-44
2023/07/22 00:36:01;;;;;;;2.65;2.45;;;;;;;15.92;61.80;99868.00;5024904;28;20041;-42
2023/07/22 00:38:29;;;;;;;2.83;2.38;;;;;;;15.90;61.70;99864.56;5010534;28;20045;-45
2023/07/22 00:40:58;;;;;;;2.20;1.70;;;;;;;15.89;61.50;99860.25;5020909;28;20053;-43
2023/07/22 00:43:26;;;;;;;2.40;2.20;;;;;;;15.86;61.90;99857.72;5011649;28;20046;-44
2023/07/22 00:45:55;;;;;;;3.22;2.38;;;;;;;15.82;61.72;99858.69;5016076;28;20068;-45
2023/07/22 00:48:23;;;;;;;1.95;1.85;;;;;;;15.80;62.12;99857.88;5017616;28;20176;-45
2023/07/22 00:50:52;;;;;;;2.05;1.85;;;;;;;15.79;62.30;99858.78;5020111;28;20129;-44
2023/07/22 00:53:20;;;;;;;3.42;3.20;;;;;;;15.74;62.24;99851.06;5023869;28;20056;-45
2023/07/22 00:55:49;;;;;;;3.00;1.75;;;;;;;15.73;62.45;99840.66;5016271;28;20048;-49
2023/07/22 00:58:17;;;;;;;2.30;2.20;;;;;;;15.69;61.72;99834.66;5022359;28;20056;-42
2023/07/22 01:00:45;;;;;;;2.53;2.08;;;;;;;15.66;62.30;99837.34;5026320;28;20532;-43
2023/07/22 01:03:12;;;;;;;2.50;2.30;;;;;;;15.63;62.31;99835.69;5027102;28;20053;-46
2023/07/22 01:05:41;;;;;;;2.08;1.80;;;;;;;15.62;62.13;99844.44;5020487;28;20133;-43
2023/07/22 01:08:08;;;;;;;3.08;2.65;;;;;;;15.58;62.03;99841.94;5025732;28;20077;-46
2023/07/22 01:10:34;;;;;;;2.47;2.22;;;;;;;15.54;61.93;99841.19;5022796;28;20045;-45
2023/07/22 01:13:01;;;;;;;2.55;2.20;;;;;;;15.52;61.78;99832.50;5021062;28;20719;-48
2023/07/22 01:15:28;;;;;;;3.78;1.73;;;;;;;15.50;62.08;99823.88;5015885;28;20046;-43
2023/07/22 01:17:56;;;;;;;2.30;2.10;;;;;;;15.46;61.97;99815.25;5012957;28;20504;-42
2023/07/22 01:20:23;;;;;;;3.00;2.47;;;;;;;15.44;62.23;99808.38;5024828;28;20050;-46
2023/07/22 01:22:52;;;;;;;4.00;2.33;;;;;;;15.44;62.68;99809.25;5023482;28;20037;-43
2023/07/22 01:25:22;;;;;;;4.25;2.50;;;;;;;15.42;62.19;99817.13;5020680;28;20141;-46
2023/07/22 01:27:50;;;;;;;2.95;2.53;;;;;;;15.40;62.50;99818.91;5020351;28;21353;-47
2023/07/22 01:30:17;;;;;;;3.53;3.05;;;;;;;15.37;62.38;99800.69;5020618;28;20052;-46
2023/07/22 01:32:44;;;;;;;2.97;2.35;;;;;;;15.38;62.67;99801.56;5008111;28;20046;-47
2023/07/22 01:35:10;;;;;;;2.50;2.30;;;;;;;15.37;62.88;99802.47;5024847;28;20041;-44
2023/07/22 01:37:37;;;;;;;3.70;2.42;;;;;;;15.37;62.88;99802.47;5026705;28;20056;-45
2023/07/22 01:40:11;;;;;;;2.25;2.00;;;;;;;15.36;62.56;99801.59;5024386;28;20054;-46
2023/07/22 01:42:39;;;;;;;3.20;2.25;;;;;;;15.34;62.90;99797.34;5015675;28;20049;-43
2023/07/22 01:45:07;;;;;;;3.15;2.30;;;;;;;15.33;63.11;99791.25;5020466;28;20054;-45
2023/07/22 01:47:35;;;;;;;3.70;2.40;;;;;;;15.32;63.11;99805.19;5017335;28;20049;-46
2023/07/22 01:50:04;;;;;;;3.80;2.30;;;;;;;15.31;62.84;99803.50;5023144;28;20509;-47
2023/07/22 01:52:30;;;;;;;2.88;2.45;;;;;;;15.29;63.80;99795.69;5021068;28;20053;-44
2023/07/22 01:54:57;;;;;;;6.18;2.72;;;;;;;15.29;63.37;99789.63;5013692;28;20383;-45
2023/07/22 01:57:24;;;;;;;3.55;2.50;;;;;;;15.30;63.64;99801.75;5020165;28;20050;-44
2023/07/22 01:59:51;;;;;;;2.25;2.05;;;;;;;15.28;63.65;99793.13;5020890;28;20152;-41
2023/07/22 02:02:19;;;;;;;2.80;2.60;;;;;;;15.28;63.52;99787.91;5022992;28;20524;-47
2023/07/22 02:04:46;;;;;;;3.00;2.22;;;;;;;15.26;63.55;99780.13;5026356;28;20060;-47
2023/07/22 02:07:13;;;;;;;4.93;2.80;;;;;;;15.26;63.76;99779.25;5021419;28;20133;-44
2023/07/22 02:09:40;;;;;;;2.80;2.03;;;;;;;15.25;64.20;99777.56;5023449;28;20049;-44
2023/07/22 02:12:08;;;;;;;3.53;2.35;;;;;;;15.25;63.64;99777.56;5015976;28;20061;-45
2023/07/22 02:14:34;;;;;;;4.13;2.50;;;;;;;15.22;64.39;99777.63;5014965;28;20042;-44
2023/07/22 02:17:01;;;;;;;2.67;2.30;;;;;;;15.21;63.96;99775.94;5024615;28;20112;-46
2023/07/22 02:19:28;;;;;;;3.22;2.17;;;;;;;15.19;64.26;99767.31;5025424;28;20049;-43
2023/07/22 02:21:55;;;;;;;3.67;2.30;;;;;;;15.19;64.04;99762.91;5026857;28;20049;-42
2023/07/22 02:24:22;;;;;;;3.58;3.20;;;;;;;15.19;64.24;99762.09;5019599;28;20401;-46
2023/07/22 02:26:49;;;;;;;3.03;2.50;;;;;;;15.19;64.67;99762.09;5015806;28;20128;-48
2023/07/22 02:29:17;;;;;;;4.57;2.15;;;;;;;15.18;64.65;99761.22;5017522;28;20053;-45
2023/07/22 02:31:44;;;;;;;4.03;3.10;;;;;;;15.15;64.47;99751.72;5013004;28;20049;-45
2023/07/22 02:34:11;;;;;;;4.40;2.53;;;;;;;15.15;64.58;99756.94;5017040;28;20052;-46
2023/07/22 02:36:37;;;;;;;4.85;2.95;;;;;;;15.14;64.98;99750.00;5026218;28;20048;-44
2023/07/22 02:39:04;;;;;;;2.35;1.38;;;;;;;15.14;64.40;99741.31;5022554;28;20580;-45
2023/07/22 02:41:31;;;;;;;3.40;2.45;;;;;;;15.13;65.17;99737.84;5016564;28;20167;-46
2023/07/22 02:43:57;;;;;;;5.55;2.95;;;;;;;15.13;64.50;99737.84;5025760;28;20050;-44
2023/07/22 02:46:25;;;;;;;3.33;1.42;;;;;;;15.11;64.80;99734.44;5012928;28;20516;-46
2023/07/22 02:48:52;;;;;;;5.55;2.55;;;;;;;15.09;65.23;99725.78;5015143;28;20053;-45
2023/07/22 02:51:18;;;;;;;4.15;3.60;;;;;;;15.08;65.25;99723.22;5018860;28;20057;-45
2023/07/22 02:53:46;;;;;;;5.80;3.08;;;;;;;15.08;65.30;99724.09;5022420;28;20095;-45
2023/07/22 02:56:13;;;;;;;3.28;2.63;;;;;;;15.07;65.57;99722.38;5022008;28;20091;-47
2023/07/22 02:58:41;;;;;;;3.97;2.83;;;;;;;15.07;65.57;99716.31;5025479;28;20052;-48
2023/07/22 03:01:10;;;;;;;5.25;3.55;;;;;;;15.08;64.94;99725.81;5020736;28;20214;-45
2023/07/22 03:03:37;;;;;;;5.35;2.85;;;;;;;15.06;65.63;99725.88;5017213;28;20072;-43
2023/07/22 03:06:04;;;;;;;3.30;2.83;;;;;;;15.04;65.56;99722.47;5019159;28;20525;-41
2023/07/22 03:08:31;;;;;;;3.70;2.65;;;;;;;15.04;65.89;99717.25;5019360;28;20073;-46
2023/07/22 03:10:57;;;;;;;5.00;3.15;;;;;;;15.02;65.78;99724.25;5018668;28;20037;-48
2023/07/22 03:13:24;;;;;;;4.38;3.97;;;;;;;15.01;66.18;99712.09;5021282;28;20103;-43
2023/07/22 03:15:50;;;;;;;3.63;2.80;;;;;;;15.01;65.32;99717.31;5017319;28;20045;-49
2023/07/22 03:18:17;;;;;;;5.47;2.83;;;;;;;15.01;65.81;99712.09;5012533;28;20054;-45
2023/07/22 03:20:44;;;;;;;4.43;3.03;;;;;;;15.00;65.64;99715.63;5023154;28;20512;-42
2023/07/22 03:23:10;;;;;;;4.53;2.95;;;;;;;15.00;65.76;99720.84;5019226;28;20052;-44
2023/07/22 03:25:37;;;;;;;4.68;3.08;;;;;;;14.99;65.84;99714.75;5022823;28;20092;-45
2023/07/22 03:28:06;;;;;;;4.00;2.92;;;;;;;14.99;66.25;99717.34;5015744;28;20049;-43
2023/07/22 03:30:33;;;;;;;4.60;3.53;;;;;;;14.98;66.02;99717.41;5016458;28;20053;-45
2023/07/22 03:33:00;;;;;;;4.60;2.92;;;;;;;14.96;66.19;99703.56;5020278;28;20056;-46
2023/07/22 03:35:28;;;;;;;5.22;1.42;;;;;;;14.93;66.47;99708.84;5014290;28;20589;-43
2023/07/22 03:37:55;;;;;;;6.75;3.08;;;;;;;14.91;66.15;99701.06;5010791;28;20140;-48
2023/07/22 03:40:26;;;;;;;4.78;3.08;;;;;;;14.90;66.02;99710.63;5020232;28;20045;-46
2023/07/22 03:42:55;;;;;;;4.95;1.83;;;;;;;14.90;66.62;99702.81;5018305;28;20589;-44
2023/07/22 03:45:22;;;;;;;3.17;2.53;;;;;;;14.88;65.95;99702.00;5016025;28;20041;-47
2023/07/22 03:47:52;;;;;;;3.45;2.60;;;;;;;14.88;66.33;99702.00;5014151;28;20046;-45
2023/07/22 03:50:19;;;;;;;3.42;2.55;;;;;;;14.85;66.51;99704.69;4997315;28;20529;-44
2023/07/22 03:52:46;;;;;;;5.32;2.63;;;;;;;14.85;66.55;99704.69;5014281;28;20502;-44
2023/07/22 03:55:13;;;;;;;6.00;2.80;;;;;;;14.84;66.83;99694.28;5014608;28;20049;-42
2023/07/22 03:57:40;;;;;;;6.93;4.20;;;;;;;14.82;66.43;99694.34;5021117;28;20061;-45
2023/07/22 04:00:11;;;;;;;3.85;3.38;;;;;;;14.80;66.66;99688.31;5009890;28;20053;-43
2023/07/22 04:02:37;;;;;;;4.25;2.40;;;;;;;14.79;66.41;99689.19;5011762;28;20046;-44
2023/07/22 04:05:04;;;;;;;4.50;1.30;;;;;;;14.77;66.20;99689.22;5018328;28;20712;-45
2023/07/22 04:07:31;;;;;;;3.80;2.38;;;;;;;14.76;66.75;99681.44;5026512;28;20049;-42
2023/07/22 04:09:58;;;;;;;4.47;3.40;;;;;;;14.75;66.82;99690.13;5017816;28;20085;-44
2023/07/22 04:12:24;;;;;;;3.88;2.83;;;;;;;14.74;66.59;99689.31;5019481;28;20054;-49
2023/07/22 04:14:51;;;;;;;4.00;2.95;;;;;;;14.74;66.43;99691.91;5024474;28;20111;-45
2023/07/22 04:17:18;;;;;;;3.97;2.72;;;;;;;14.73;66.65;99684.97;5025116;28;20049;-44
2023/07/22 04:19:45;;;;;;;5.38;3.13;;;;;;;14.75;66.44;99684.91;5023188;28;20106;-45
2023/07/22 04:22:12;;;;;;;6.68;2.80;;;;;;;14.74;66.14;99680.63;5024020;28;20052;-43
2023/07/22 04:24:38;;;;;;;4.35;2.97;;;;;;;14.73;66.84;99676.31;5020052;28;20072;-47
2023/07/22 04:27:05;;;;;;;4.00;2.95;;;;;;;14.73;66.83;99671.09;5025825;28;20064;-44
2023/07/22 04:29:32;;;;;;;10.38;4.13;;;;;;;14.74;66.84;99672.78;5021282;28;20046;-42
2023/07/22 04:32:00;;;;;;;6.43;2.75;;;;;;;14.74;66.89;99671.06;5015925;28;20131;-47
2023/07/22 04:34:31;;;;;;;5.07;3.35;;;;;;;14.74;66.88;99662.38;5025402;28;20050;-44
2023/07/22 04:36:58;;;;;;;5.82;2.85;;;;;;;14.76;66.87;99665.81;5029126;28;20509;-44
2023/07/22 04:39:25;;;;;;;4.55;3.10;;;;;;;14.77;66.81;99662.31;5029387;28;20049;-44
2023/07/22 04:41:52;;;;;;;4.93;3.08;;;;;;;14.78;66.91;99669.25;5024814;28;20053;-43
2023/07/22 04:44:19;;;;;;;6.22;3.88;;;;;;;14.78;67.38;99661.41;5029225;28;20041;-44
2023/07/22 04:46:46;;;;;;;4.93;3.47;;;;;;;14.78;66.79;99658.81;5026359;28;20527;-43
2023/07/22 04:49:17;;;;;;;4.28;1.67;;;;;;;14.80;67.55;99656.16;5025886;28;20438;-46
2023/07/22 04:51:45;;;;;;;5.65;3.42;;;;;;;14.81;67.06;99652.66;5024937;28;20049;-43
2023/07/22 04:54:12;;;;;;;4.57;3.22;;;;;;;14.80;67.68;99656.16;5022191;28;20387;-44
2023/07/22 04:56:39;;;;;;;6.28;3.75;;;;;;;14.80;67.20;99649.22;5028692;28;20508;-43
2023/07/22 04:59:06;;;;;;;5.63;1.92;;;;;;;14.81;67.63;99643.09;5028842;28;20461;-46
2023/07/22 05:01:33;;;;;;;5.88;3.50;;;;;;;14.84;67.52;99644.75;5018762;28;20042;-45
2023/07/22 05:03:59;;;;;;;6.43;4.20;;;;;;;14.84;67.28;99642.16;5012447;28;20053;-48
2023/07/22 05:06:28;;;;;;;7.20;3.83;;;;;;;14.86;67.46;99636.00;5024408;28;20141;-44
2023/07/22 05:08:55;;;;;;;6.88;3.55;;;;;;;14.89;67.60;99638.53;5027837;28;20049;-43
2023/07/22 05:11:23;;;;;;;7.78;4.22;;;;;;;14.92;67.35;99628.91;5016923;28;20076;-46
2023/07/22 05:13:50;;;;;;;6.25;3.13;;;;;;;14.92;67.71;99640.19;5011369;28;20049;-42
2023/07/22 05:16:17;;;;;;;4.45;2.90;;;;;;;14.95;67.46;99639.25;5025384;28;20049;-48
2023/07/22 05:18:44;;;;;;;5.07;2.92;;;;;;;14.98;67.92;99634.81;5018421;28;20069;-45
2023/07/22 05:21:11;;;;;;;5.03;2.95;;;;;;;15.00;67.45;99640.00;5022076;28;20481;-44
2023/07/22 05:23:38;;;;;;;5.60;1.42;;;;;;;14.99;68.24;99625.22;5018922;28;20572;-44
2023/07/22 05:26:05;;;;;;;3.30;1.88;;;;;;;15.01;67.89;99623.44;5020052;28;20449;-44
2023/07/22 05:28:31;;;;;;;4.45;2.95;;;;;;;15.01;68.42;99628.66;5021467;28;20071;-46
2023/07/22 05:30:58;;;;;;;6.90;3.53;;;;;;;15.02;68.19;99626.00;5018741;28;20042;-43
2023/07/22 05:33:25;;;;;;;6.43;3.63;;;;;;;15.00;68.92;99626.94;5023029;28;20045;-45
2023/07/22 05:35:51;;;;;;;6.03;3.42;;;;;;;15.01;68.40;99618.22;5014524;28;20037;-46
2023/07/22 05:38:18;;;;;;;4.88;3.42;;;;;;;15.01;68.09;99618.22;5018865;28;20050;-46
2023/07/22 05:40:45;;;;;;;8.75;3.63;;;;;;;15.00;68.52;99606.09;5019930;28;20564;-43
2023/07/22 05:43:12;;;;;;;8.73;3.75;;;;;;;15.00;69.08;99611.31;5017313;28;20541;-50
2023/07/22 05:45:39;;;;;;;6.93;3.40;;;;;;;14.98;68.80;99608.75;5023229;28;20045;-45
2023/07/22 05:48:05;;;;;;;4.63;1.77;;;;;;;15.00;68.79;99608.69;5022307;28;20437;-45
2023/07/22 05:50:32;;;;;;;5.25;2.92;;;;;;;15.03;69.05;99603.41;5023564;28;20060;-46
2023/07/22 05:52:59;;;;;;;5.40;3.05;;;;;;;15.04;68.81;99598.09;5019431;28;20056;-43
2023/07/22 05:55:26;;;;;;;7.85;3.38;;;;;;;15.09;68.65;99603.22;5024149;28;20045;-43
2023/07/22 05:57:53;;;;;;;5.40;3.65;;;;;;;15.13;69.01;99597.00;5021788;28;20057;-44
2023/07/22 06:00:20;;;;;;;8.63;3.85;;;;;;;15.18;68.98;99601.22;5025358;28;20061;-46
2023/07/22 06:02:48;;;;;;;10.40;4.03;;;;;;;15.22;68.94;99598.50;5022615;28;20046;-46
2023/07/22 06:05:15;;;;;;;7.35;4.53;;;;;;;15.27;68.86;99593.16;5026647;28;20553;-43
2023/07/22 06:07:42;;;;;;;10.63;4.68;;;;;;;15.30;69.12;99603.47;5017292;28;20049;-44
2023/07/22 06:10:10;;;;;;;7.18;3.60;;;;;;;15.34;68.81;99597.28;5021392;28;20049;-44
2023/07/22 06:12:37;;;;;;;9.68;4.32;;;;;;;15.35;69.04;99600.72;5024490;28;20052;-44
2023/07/22 06:15:04;;;;;;;7.35;3.40;;;;;;;15.36;69.05;99603.28;5020118;28;20227;-43
2023/07/22 06:17:31;;;;;;;7.25;4.68;;;;;;;15.37;68.73;99602.38;5011506;28;20045;-46
2023/07/22 06:19:57;;;;;;;7.22;3.90;;;;;;;15.37;69.17;99594.56;5013419;28;20505;-42
2023/07/22 06:22:24;;;;;;;7.38;3.78;;;;;;;15.38;69.20;99592.81;5021820;28;20050;-47
2023/07/22 06:24:51;;;;;;;7.22;3.15;;;;;;;15.39;69.51;99595.38;5016051;28;20042;-44
2023/07/22 06:27:19;;;;;;;7.32;4.75;;;;;;;15.39;69.54;99590.16;5022485;28;20462;-45
2023/07/22 06:29:45;;;;;;;6.80;3.92;;;;;;;15.41;68.83;99590.13;5015416;28;20037;-42
2023/07/22 06:32:12;;;;;;;5.13;1.98;;;;;;;15.40;69.75;99586.66;5022379;28;20612;-48
2023/07/22 06:34:39;;;;;;;6.28;3.40;;;;;;;15.40;69.59;99577.97;5022140;28;20461;-44
2023/07/22 06:37:05;;;;;;;8.50;3.67;;;;;;;15.43;69.64;99593.53;5019909;28;20046;-44
2023/07/22 06:39:33;;;;;;;6.95;3.95;;;;;;;15.44;69.43;99589.16;5023439;28;20054;-43
2023/07/22 06:41:59;;;;;;;7.43;4.00;;;;;;;15.46;69.43;99592.56;5015305;28;20072;-43
2023/07/22 06:44:26;;;;;;;9.80;5.05;;;;;;;15.47;69.67;99589.09;5012571;28;20053;-43
2023/07/22 06:46:53;;;;;;;10.90;4.68;;;;;;;15.46;69.93;99590.81;5016807;28;20831;-45
2023/07/22 06:49:19;;;;;;;7.53;3.58;;;;;;;15.49;69.27;99595.09;5014388;28;20042;-47
2023/07/22 06:51:46;;;;;;;8.30;5.13;;;;;;;15.50;69.24;99589.00;5023497;28;20048;-42
2023/07/22 06:54:13;;;;;;;9.95;4.75;;;;;;;15.48;69.68;99593.38;5020613;28;20071;-45
2023/07/22 06:56:39;;;;;;;9.20;4.13;;;;;;;15.48;69.28;99585.56;5022825;28;20052;-46
2023/07/22 06:59:06;;;;;;;7.78;3.83;;;;;;;15.46;69.90;99583.00;5024683;28;20061;-42
2023/07/22 07:01:33;;;;;;;5.50;4.53;;;;;;;15.48;69.96;99590.78;5019483;28;20052;-42
2023/07/22 07:03:59;;;;;;;6.28;2.95;;;;;;;15.48;69.69;99580.34;5018746;28;20072;-43
2023/07/22 07:06:28;;;;;;;6.30;3.55;;;;;;;15.51;69.67;99590.69;5024278;28;20048;-47
2023/07/22 07:08:55;;;;;;;6.78;3.63;;;;;;;15.51;70.08;99593.31;5026309;28;20048;-43
2023/07/22 07:11:22;;;;;;;7.25;3.42;;;;;;;15.51;69.73;99585.47;5026594;28;20404;-41
2023/07/22 07:13:48;;;;;;;7.38;3.47;;;;;;;15.51;70.08;99578.47;5026298;28;20053;-41
2023/07/22 07:19:02;;;;;;;4.78;2.15;;;;;;;15.50;70.32;99568.13;5051401;28;20957;-46
2023/07/22 07:21:28;;;;;;;4.93;1.73;;;;;;;15.51;70.16;99575.03;5019644;28;20056;-46
2023/07/22 07:23:55;;;;;;;7.65;2.50;;;;;;;15.51;70.18;99575.03;5016674;28;20050;-47
2023/07/22 07:26:22;;;;;;;4.55;1.98;;;;;;;15.51;70.78;99575.03;5015772;28;20042;-44
2023/07/22 07:28:50;;;;;;;4.45;2.00;;;;;;;15.55;70.70;99576.66;5020104;28;20072;-45
2023/07/22 07:31:17;;;;;;;3.88;1.50;;;;;;;15.58;70.33;99571.34;5018462;28;20046;-45
2023/07/22 07:33:44;;;;;;;4.90;1.92;;;;;;;15.62;70.47;99566.88;5010082;28;20045;-45
2023/07/22 07:36:11;;;;;;;3.55;1.63;;;;;;;15.65;70.53;99562.41;5021103;28;20103;-45
2023/07/22 07:38:37;;;;;;;3.55;1.45;;;;;;;15.68;70.12;99567.50;5015648;28;20165;-46
2023/07/22 07:41:11;;;;;;;4.88;1.63;;;;;;;15.71;70.51;99561.38;5020533;28;20674;-45
2023/07/22 07:43:39;;;;;;;4.55;1.42;;;;;;;15.73;70.64;99558.69;5012803;28;20056;-46
2023/07/22 07:46:18;;;;;;;7.60;2.00;;;;;;;15.68;70.71;99562.28;5021272;28;20054;-47
2023/07/22 07:48:47;;;;;;;5.28;1.58;;;;;;;15.68;70.29;99554.47;5013413;28;20073;-49
2023/07/22 07:51:14;;;;;;;8.70;2.60;;;;;;;15.71;70.65;99555.28;5021514;28;20549;-45
2023/07/22 07:53:43;;;;;;;5.88;2.92;;;;;;;15.73;70.66;99558.69;5018729;28;20046;-47
2023/07/22 07:56:11;;;;;;;7.15;2.40;;;;;;;15.72;70.97;99556.97;5012657;28;20042;-44
2023/07/22 07:58:39;;;;;;;8.23;2.72;;;;;;;15.72;70.30;99563.06;5017247;28;20127;-45
2023/07/22 08:01:06;;;;;;;8.07;3.25;;;;;;;15.72;70.94;99564.81;5012067;28;20104;-45
2023/07/22 08:03:34;;;;;;;7.82;2.53;;;;;;;15.71;70.89;99560.50;5018890;28;20412;-44
2023/07/22 08:06:02;;;;;;;5.35;2.30;;;;;;;15.70;70.80;99553.59;5019688;28;20069;-48
2023/07/22 08:08:29;;;;;;;5.82;2.47;;;;;;;15.72;70.30;99557.84;5018607;28;20128;-46
2023/07/22 08:10:58;;;;;;;6.63;2.75;;;;;;;15.75;71.20;99551.66;5018939;28;20060;-44
2023/07/22 08:13:26;;;;;;;7.45;2.58;;;;;;;15.76;70.83;99553.38;5014706;28;20052;-48
2023/07/22 08:15:53;;;;;;;6.53;2.33;;;;;;;15.78;70.94;99551.56;5019654;28;20045;-45
2023/07/22 08:18:20;;;;;;;6.20;2.00;;;;;;;15.78;71.37;99551.56;5016865;28;20187;-47
2023/07/22 08:20:47;;;;;;;6.07;1.83;;;;;;;15.82;70.91;99553.19;5015928;28;20065;-45
2023/07/22 08:23:14;;;;;;;6.22;2.28;;;;;;;15.85;71.04;99545.25;5011660;28;20046;-46
2023/07/22 08:25:40;;;;;;;10.27;2.50;;;;;;;15.88;70.93;99554.75;5022761;28;20138;-45
2023/07/22 08:28:07;;;;;;;5.20;2.28;;;;;;;15.90;70.99;99551.16;5014787;28;20080;-45
2023/07/22 08:30:35;;;;;;;6.07;2.53;;;;;;;15.92;70.96;99551.97;5000423;28;20054;-44
2023/07/22 08:33:01;;;;;;;6.88;2.50;;;;;;;15.94;71.60;99544.06;5005348;28;20050;-47
2023/07/22 08:35:28;;;;;;;8.80;2.13;;;;;;;15.96;70.96;99544.06;5007526;28;20041;-44
2023/07/22 08:37:56;;;;;;;6.35;2.38;;;;;;;16.00;71.08;99540.44;5007273;28;20045;-44
2023/07/22 08:40:22;;;;;;;7.32;2.22;;;;;;;16.01;71.14;99536.94;4998177;28;20049;-44
2023/07/22 08:42:50;;;;;;;7.22;2.22;;;;;;;16.07;71.10;99536.72;4998622;28;20049;-46
2023/07/22 08:45:18;;;;;;;9.18;2.42;;;;;;;16.12;71.28;99534.81;4994909;28;20573;-45
2023/07/22 08:47:46;;;;;;;7.78;2.88;;;;;;;16.15;70.92;99533.84;5002153;28;20042;-42
2023/07/22 08:50:19;;;;;;;7.32;2.38;;;;;;;16.17;71.63;99532.03;4996485;28;20732;-43
2023/07/22 08:52:47;;;;;;;7.30;2.80;;;;;;;16.16;71.34;99532.94;4987476;28;20054;-42
2023/07/22 08:55:14;;;;;;;6.70;2.75;;;;;;;16.18;71.40;99525.91;4982630;28;20058;-42
2023/07/22 08:57:41;;;;;;;5.55;2.22;;;;;;;16.18;71.46;99526.75;4981635;28;20058;-43
2023/07/22 09:00:09;;;;;;;5.50;1.88;;;;;;;16.18;71.07;99524.13;4986757;28;20410;-45
2023/07/22 09:02:37;;;;;;;4.18;1.90;;;;;;;16.15;71.89;99519.00;4983098;28;20053;-43
2023/07/22 09:05:03;;;;;;;6.45;2.10;;;;;;;16.14;71.88;99517.31;4977491;28;20062;-44
2023/07/22 09:07:31;;;;;;;7.65;2.15;;;;;;;16.12;71.22;99513.91;4988347;28;20046;-43
2023/07/22 09:09:59;;;;;;;6.07;2.08;;;;;;;16.13;71.82;99515.63;4982717;28;20046;-42
2023/07/22 09:12:26;;;;;;;5.32;2.20;;;;;;;16.14;71.38;99512.09;4980302;28;20491;-43
2023/07/22 09:14:53;;;;;;;8.38;3.00;;;;;;;16.18;72.01;99513.69;4981103;28;20165;-45
2023/07/22 09:17:20;;;;;;;3.78;1.77;;;;;;;16.21;71.52;99511.91;4980793;28;20077;-44
2023/07/22 09:19:52;;;;;;;8.73;3.20;;;;;;;16.26;71.71;99504.75;4984532;28;20407;-42
2023/07/22 09:22:18;;;;;;;5.78;2.70;;;;;;;16.31;71.63;99516.72;4975662;28;20134;-42
2023/07/22 09:24:45;;;;;;;11.18;3.08;;;;;;;16.38;71.91;99514.75;4979870;28;20046;-42
2023/07/22 09:27:12;;;;;;;11.57;3.58;;;;;;;16.39;71.91;99516.47;4978942;28;20043;-43
2023/07/22 09:29:40;;;;;;;8.52;3.25;;;;;;;16.45;72.00;99516.25;4981657;28;20058;-44
2023/07/22 09:32:07;;;;;;;6.85;2.80;;;;;;;16.53;72.17;99512.50;4984669;28;20050;-45
2023/07/22 09:34:34;;;;;;;8.55;3.42;;;;;;;16.56;72.17;99517.63;4982031;28;20057;-43
2023/07/22 09:37:00;;;;;;;10.10;3.63;;;;;;;16.56;71.69;99512.41;4981543;28;20607;-43
2023/07/22 09:39:27;;;;;;;8.43;3.45;;;;;;;16.60;71.94;99511.38;4978720;28;20498;-42
2023/07/22 09:41:54;;;;;;;12.98;4.13;;;;;;;16.64;72.26;99510.34;4983450;28;20054;-45
2023/07/22 09:44:22;;;;;;;8.93;3.42;;;;;;;16.62;72.04;99520.00;4970549;28;20558;-42
2023/07/22 09:46:49;;;;;;;7.78;2.70;;;;;;;16.60;71.69;99513.13;4976083;28;20042;-43
2023/07/22 09:49:18;;;;;;;7.65;3.10;;;;;;;16.61;72.14;99509.63;4982150;28;20050;-46
2023/07/22 09:51:45;;;;;;;7.05;2.90;;;;;;;16.62;71.55;99501.69;4981584;28;20050;-44
2023/07/22 09:54:31;;;;;;;;;;;;;;;16.48;72.15;99498.75;4975343;28;20042;-43
2023/07/22 09:56:58;;;;;;;12.20;4.53;;;;;;;16.65;71.66;99496.34;4986426;28;19928;-43
2023/07/22 09:59:28;;;;;;;14.15;5.40;;;;;;;16.72;71.50;99501.38;4983216;28;20038;-43
2023/07/22 10:01:58;;;;;;;12.57;5.50;;;;;;;16.76;71.67;99497.72;4984194;28;20081;-46
2023/07/22 10:04:32;;;;;;;9.20;4.05;;;;;;;16.69;72.28;99495.34;4984983;28;20541;-44
2023/07/22 10:06:59;;;;;;;12.23;3.88;;;;;;;16.72;71.95;99491.75;4982111;28;20042;-43
2023/07/22 10:09:28;;;;;;;12.18;4.75;;;;;;;16.75;71.96;99490.81;4985317;28;20061;-43
2023/07/22 10:11:55;;;;;;;11.75;4.97;;;;;;;16.79;72.45;99481.94;4981972;28;20066;-46
2023/07/22 10:14:22;;;;;;;13.57;4.53;;;;;;;16.79;72.07;99488.00;4985713;28;20053;-41
2023/07/22 10:16:49;;;;;;;12.90;6.68;;;;;;;16.85;71.98;99481.69;4979049;28;20646;-44
2023/07/22 10:19:16;;;;;;;9.60;4.38;;;;;;;16.84;71.92;99485.22;4982601;28;20054;-42
2023/07/22 10:21:43;;;;;;;11.43;4.25;;;;;;;16.89;71.67;99488.50;4980527;28;20101;-44
2023/07/22 10:24:11;;;;;;;9.52;4.32;;;;;;;16.92;71.38;99483.16;4985419;28;20065;-43
2023/07/22 10:26:39;;;;;;;8.25;3.67;;;;;;;16.97;71.59;99483.00;4982926;28;20073;-43
2023/07/22 10:29:13;;;;;;;7.55;3.35;;;;;;;16.99;71.85;99477.72;4979458;28;20051;-43
2023/07/22 10:31:40;;;;;;;13.18;3.53;;;;;;;17.04;71.63;99475.75;4979871;28;20078;-43
2023/07/22 10:34:08;;;;;;;10.85;3.70;;;;;;;17.08;72.02;99472.13;4981367;28;20043;-44
2023/07/22 10:36:36;;;;;;;9.52;3.75;;;;;;;17.09;72.07;99468.59;4981161;28;20042;-42
2023/07/22 10:39:03;;;;;;;7.43;2.88;;;;;;;17.08;72.51;99456.44;4980607;28;20051;-43
2023/07/22 10:41:32;;;;;;;7.43;3.17;;;;;;;17.12;72.31;99463.25;4984971;28;20058;-44
2023/07/22 10:43:59;;;;;;;6.88;2.95;;;;;;;17.09;71.43;99459.00;4982297;28;20050;-42
2023/07/22 10:46:43;;;;;;;5.40;2.90;;;;;;;17.08;72.43;99456.44;4985604;28;20049;-46
2023/07/22 10:49:13;;;;;;;8.93;3.17;;;;;;;17.16;71.87;99459.59;4977044;28;20051;-42
2023/07/22 10:51:40;;;;;;;7.40;3.40;;;;;;;17.21;72.40;99452.44;4984002;28;20483;-46
2023/07/22 10:54:12;;;;;;;5.82;2.95;;;;;;;17.26;71.99;99456.63;4971542;28;20051;-47
2023/07/22 10:56:42;;;;;;;11.43;2.95;;;;;;;17.31;71.38;99446.81;4979975;28;20043;-45
2023/07/22 10:59:11;;;;;;;8.18;3.25;;;;;;;17.37;71.88;99451.81;4983074;28;20457;-43
2023/07/22 11:01:39;;;;;;;6.70;2.92;;;;;;;17.35;71.92;99437.94;4983140;28;20322;-43
2023/07/22 11:04:35;;;;;;;8.18;3.10;;;;;;;17.30;71.99;99438.09;4981029;28;20042;-42
2023/07/22 11:07:44;;;;;;;6.05;2.17;;;;;;;17.28;71.74;99436.47;4976678;28;20050;-44
2023/07/22 11:10:16;;;;;;;6.35;2.75;;;;;;;17.32;71.41;99427.56;4976185;28;20046;-45
2023/07/22 11:12:45;;;;;;;11.15;4.30;;;;;;;17.39;72.02;99434.28;4982030;28;20073;-46
2023/07/22 11:15:16;;;;;;;8.75;4.57;;;;;;;17.47;72.03;99432.19;4984855;28;20132;-43
2023/07/22 11:17:43;;;;;;;4.28;2.22;;;;;;;17.45;72.10;99423.56;4981316;28;20042;-42
2023/07/22 11:20:10;;;;;;;11.25;4.07;;;;;;;17.51;72.46;99421.59;4976820;28;20043;-42
2023/07/22 11:22:40;;;;;;;5.55;2.65;;;;;;;17.53;71.94;99414.53;4983314;28;20437;-48
2023/07/22 11:25:08;;;;;;;7.45;2.50;;;;;;;17.50;72.25;99410.28;4978708;28;20050;-42
2023/07/22 11:27:36;;;;;;;6.45;1.95;;;;;;;17.46;71.56;99414.78;4982783;28;20050;-43
2023/07/22 11:30:03;;;;;;;6.00;1.92;;;;;;;17.46;72.26;99409.53;4986516;28;20129;-44
2023/07/22 11:32:32;;;;;;;4.97;2.15;;;;;;;17.42;72.67;99405.34;4981618;28;20039;-41
2023/07/22 11:34:59;;;;;;;4.60;2.05;;;;;;;17.44;72.15;99400.91;4990123;28;20501;-44
2023/07/22 11:37:28;;;;;;;8.00;3.10;;;;;;;17.47;72.68;99389.47;4996812;28;20493;-42
2023/07/22 11:40:00;;;;;;;4.75;2.10;;;;;;;17.46;72.58;99383.38;4981828;28;20050;-42